Terminal Aerodrome Forecast
Issued by NWS

Home | Current Version | Previous Version | Graphics & Text | Print | Product List | Glossary On
Versions: 1 2 3 4 5 6 7 8 9 10 11 12 13 14 15 16 17 18
000
FTUS43 KGRB 310500 AAA
TAFRHI
TAF AMD
KRHI 310541Z 3106/0106 33012G20KT 3SM -SHSN BKN020 OVC035
      TEMPO 3106/3108 1/2SM SHSN VV009
     FM310800 34014G24KT P6SM SCT020 BKN035
      TEMPO 3108/3110 4SM -SHSN BKN020
     FM312100 35009G16KT P6SM SCT040
     FM010000 34004KT P6SM SCT035=

USA.gov is the U.S. government's official web portal to all federal, state and local government web resources and services.